PWSweather.com
Personal Weather Stations
Station Observations
KTXROWLE6
Ravens Nest, Rowlett, TX 75089

Ravens NestRowlett, TX 75089

Lat: 32.93105, Lon: -96.57368

Elevation: 556

Station Type: Davis Vantage Pro2 6152

http://rowlett.ws

High Low Average
Temperature 94.2°F34.6°C 78.5°F25.8°C 85.7°F29.8°C
Dew Point 74.8°F23.8°C 67.1°F19.5°C 70.9°F21.6°C
Winds 9.0 mph 14.5 kmh Calm Calm 4.0 mph SW6.4 kmh SW
Wind Gusts 19.0 mph30.6 kmh 1.0 mph1.6 kmh 9.0 mph14.5 kmh
Humidity 71% 48% 62%
Pressure 29.94 in1013.9 mb 29.85 in1010.8 mb -
Precipitation 0.00 in0.0 mm - -
Hour Temp Dew Point Humidity Winds Wind Gusts Pressure Precip Precip Rate Daily Precip Total
12:00 AM 80.1°F26.7°C 68.1°F20.1°C 67% 0.7 mph WNW1.1 kmh WNW 2.0 mph3.2 kmh 29.89 in1012.2 mb 0.00 in0.0 mm 0.00 in0.0 mm 0.00 in0.0 mm
12:05 AM 80.2°F26.8°C 67.8°F19.9°C 66% 1.2 mph WNW1.9 kmh WNW 2.0 mph3.2 kmh 29.89 in1012.2 mb 0.00 in0.0 mm 0.00 in0.0 mm 0.00 in0.0 mm
12:10 AM 80.3°F26.8°C 67.4°F19.7°C 65% 0.6 mph WNW1.0 kmh WNW 2.0 mph3.2 kmh 29.88 in1011.9 mb 0.00 in0.0 mm 0.00 in0.0 mm 0.00 in0.0 mm
12:15 AM 80.2°F26.8°C 67.3°F19.6°C 65% Calm Calm 2.0 mph3.2 kmh 29.88 in1011.9 mb 0.00 in0.0 mm 0.00 in0.0 mm 0.00 in0.0 mm
12:20 AM 80.0°F26.7°C 67.2°F19.6°C 65% 0.1 mph WNW0.2 kmh WNW 1.0 mph1.6 kmh 29.88 in1011.9 mb 0.00 in0.0 mm 0.00 in0.0 mm 0.00 in0.0 mm
12:25 AM 79.6°F26.4°C 67.2°F19.6°C 66% 0.1 mph WNW0.2 kmh WNW 1.0 mph1.6 kmh 29.88 in1011.9 mb 0.00 in0.0 mm 0.00 in0.0 mm 0.00 in0.0 mm
12:30 AM 79.9°F26.6°C 67.1°F19.5°C 65% 0.1 mph WNW0.2 kmh WNW 1.0 mph1.6 kmh 29.88 in1011.9 mb 0.00 in0.0 mm 0.00 in0.0 mm 0.00 in0.0 mm
12:35 AM 80.2°F26.8°C 67.3°F19.6°C 65% 0.7 mph WNW1.1 kmh WNW 2.0 mph3.2 kmh 29.87 in1011.5 mb 0.00 in0.0 mm 0.00 in0.0 mm 0.00 in0.0 mm
12:40 AM 80.1°F26.7°C 67.2°F19.6°C 65% 1.3 mph WNW2.1 kmh WNW 2.0 mph3.2 kmh 29.87 in1011.5 mb 0.00 in0.0 mm 0.00 in0.0 mm 0.00 in0.0 mm
12:45 AM 80.0°F26.7°C 67.2°F19.6°C 65% 1.1 mph WNW1.8 kmh WNW 2.0 mph3.2 kmh 29.87 in1011.5 mb 0.00 in0.0 mm 0.00 in0.0 mm 0.00 in0.0 mm
12:50 AM 79.8°F26.6°C 67.4°F19.7°C 66% 0.6 mph WNW1.0 kmh WNW 3.0 mph4.8 kmh 29.88 in1011.9 mb 0.00 in0.0 mm 0.00 in0.0 mm 0.00 in0.0 mm
12:55 AM 79.6°F26.4°C 67.2°F19.6°C 66% Calm Calm 3.0 mph4.8 kmh 29.87 in1011.5 mb 0.00 in0.0 mm 0.00 in0.0 mm 0.00 in0.0 mm
01:00 AM 79.5°F26.4°C 67.1°F19.5°C 66% 0.4 mph WNW0.6 kmh WNW 2.0 mph3.2 kmh 29.87 in1011.5 mb 0.00 in0.0 mm 0.00 in0.0 mm 0.00 in0.0 mm
01:05 AM 79.5°F26.4°C 67.6°F19.8°C 67% 0.3 mph WNW0.5 kmh WNW 2.0 mph3.2 kmh 29.87 in1011.5 mb 0.00 in0.0 mm 0.00 in0.0 mm 0.00 in0.0 mm
01:10 AM 79.7°F26.5°C 67.3°F19.6°C 66% Calm Calm 1.0 mph1.6 kmh 29.88 in1011.9 mb 0.00 in0.0 mm 0.00 in0.0 mm 0.00 in0.0 mm
01:15 AM 79.9°F26.6°C 67.1°F19.5°C 65% 0.5 mph WNW0.8 kmh WNW 2.0 mph3.2 kmh 29.87 in1011.5 mb 0.00 in0.0 mm 0.00 in0.0 mm 0.00 in0.0 mm
01:20 AM 80.0°F26.7°C 67.2°F19.6°C 65% 0.1 mph WNW0.2 kmh WNW 2.0 mph3.2 kmh 29.87 in1011.5 mb 0.00 in0.0 mm 0.00 in0.0 mm 0.00 in0.0 mm
01:25 AM 80.0°F26.7°C 67.2°F19.6°C 65% 0.6 mph W1.0 kmh W 4.0 mph6.4 kmh 29.87 in1011.5 mb 0.00 in0.0 mm 0.00 in0.0 mm 0.00 in0.0 mm
01:30 AM 79.9°F26.6°C 67.1°F19.5°C 65% 1.5 mph SW2.4 kmh SW 4.0 mph6.4 kmh 29.87 in1011.5 mb 0.00 in0.0 mm 0.00 in0.0 mm 0.00 in0.0 mm
01:35 AM 79.8°F26.6°C 67.4°F19.7°C 66% 1.1 mph SW1.8 kmh SW 3.0 mph4.8 kmh 29.87 in1011.5 mb 0.00 in0.0 mm 0.00 in0.0 mm 0.00 in0.0 mm
01:40 AM 79.7°F26.5°C 67.3°F19.6°C 66% 0.2 mph SW0.3 kmh SW 3.0 mph4.8 kmh 29.87 in1011.5 mb 0.00 in0.0 mm 0.00 in0.0 mm 0.00 in0.0 mm
01:45 AM 79.5°F26.4°C 67.1°F19.5°C 66% 0.2 mph SW0.3 kmh SW 3.0 mph4.8 kmh 29.87 in1011.5 mb 0.00 in0.0 mm 0.00 in0.0 mm 0.00 in0.0 mm
01:50 AM 79.5°F26.4°C 67.6°F19.8°C 67% 1.2 mph SW1.9 kmh SW 2.0 mph3.2 kmh 29.86 in1011.2 mb 0.00 in0.0 mm 0.00 in0.0 mm 0.00 in0.0 mm
01:55 AM 79.4°F26.3°C 67.5°F19.7°C 67% 0.7 mph SW1.1 kmh SW 2.0 mph3.2 kmh 29.86 in1011.2 mb 0.00 in0.0 mm 0.00 in0.0 mm 0.00 in0.0 mm
02:00 AM 79.3°F26.3°C 67.4°F19.7°C 67% 1.2 mph SW1.9 kmh SW 2.0 mph3.2 kmh 29.86 in1011.2 mb 0.00 in0.0 mm 0.00 in0.0 mm 0.00 in0.0 mm
02:05 AM 79.4°F26.3°C 67.5°F19.7°C 67% 0.4 mph SW0.6 kmh SW 2.0 mph3.2 kmh 29.86 in1011.2 mb 0.00 in0.0 mm 0.00 in0.0 mm 0.00 in0.0 mm
02:10 AM 79.2°F26.2°C 67.3°F19.6°C 67% 0.3 mph SW0.5 kmh SW 2.0 mph3.2 kmh 29.86 in1011.2 mb 0.00 in0.0 mm 0.00 in0.0 mm 0.00 in0.0 mm
02:15 AM 79.3°F26.3°C 67.4°F19.7°C 67% 0.2 mph SW0.3 kmh SW 2.0 mph3.2 kmh 29.86 in1011.2 mb 0.00 in0.0 mm 0.00 in0.0 mm 0.00 in0.0 mm
02:20 AM 79.3°F26.3°C 67.4°F19.7°C 67% 1.3 mph SW2.1 kmh SW 3.0 mph4.8 kmh 29.86 in1011.2 mb 0.00 in0.0 mm 0.00 in0.0 mm 0.00 in0.0 mm
02:25 AM 79.2°F26.2°C 67.3°F19.6°C 67% 1.1 mph SW1.8 kmh SW 3.0 mph4.8 kmh 29.86 in1011.2 mb 0.00 in0.0 mm 0.00 in0.0 mm 0.00 in0.0 mm
02:30 AM 79.1°F26.2°C 67.2°F19.6°C 67% 0.3 mph SW0.5 kmh SW 2.0 mph3.2 kmh 29.86 in1011.2 mb 0.00 in0.0 mm 0.00 in0.0 mm 0.00 in0.0 mm
02:35 AM 79.1°F26.2°C 67.2°F19.6°C 67% 1.0 mph WSW1.6 kmh WSW 5.0 mph8.0 kmh 29.86 in1011.2 mb 0.00 in0.0 mm 0.00 in0.0 mm 0.00 in0.0 mm
02:40 AM 79.0°F26.1°C 67.1°F19.5°C 67% 1.3 mph WSW2.1 kmh WSW 5.0 mph8.0 kmh 29.86 in1011.2 mb 0.00 in0.0 mm 0.00 in0.0 mm 0.00 in0.0 mm
02:45 AM 79.0°F26.1°C 67.5°F19.7°C 68% 1.4 mph W2.3 kmh W 4.0 mph6.4 kmh 29.86 in1011.2 mb 0.00 in0.0 mm 0.00 in0.0 mm 0.00 in0.0 mm
02:50 AM 79.0°F26.1°C 67.5°F19.7°C 68% 0.8 mph W1.3 kmh W 4.0 mph6.4 kmh 29.86 in1011.2 mb 0.00 in0.0 mm 0.00 in0.0 mm 0.00 in0.0 mm
02:55 AM 79.0°F26.1°C 67.5°F19.7°C 68% 1.0 mph W1.6 kmh W 3.0 mph4.8 kmh 29.86 in1011.2 mb 0.00 in0.0 mm 0.00 in0.0 mm 0.00 in0.0 mm
03:00 AM 79.0°F26.1°C 67.9°F19.9°C 69% 1.0 mph SW1.6 kmh SW 3.0 mph4.8 kmh 29.86 in1011.2 mb 0.00 in0.0 mm 0.00 in0.0 mm 0.00 in0.0 mm
03:05 AM 78.9°F26.1°C 67.8°F19.9°C 69% 0.6 mph SW1.0 kmh SW 3.0 mph4.8 kmh 29.86 in1011.2 mb 0.00 in0.0 mm 0.00 in0.0 mm 0.00 in0.0 mm
03:10 AM 78.9°F26.1°C 67.8°F19.9°C 69% 0.8 mph SW1.3 kmh SW 3.0 mph4.8 kmh 29.86 in1011.2 mb 0.00 in0.0 mm 0.00 in0.0 mm 0.00 in0.0 mm
03:15 AM 78.9°F26.1°C 68.3°F20.2°C 70% 1.0 mph WSW1.6 kmh WSW 3.0 mph4.8 kmh 29.87 in1011.5 mb 0.00 in0.0 mm 0.00 in0.0 mm 0.00 in0.0 mm
03:20 AM 78.9°F26.1°C 68.3°F20.2°C 70% 1.5 mph WSW2.4 kmh WSW 4.0 mph6.4 kmh 29.86 in1011.2 mb 0.00 in0.0 mm 0.00 in0.0 mm 0.00 in0.0 mm
03:25 AM 78.9°F26.1°C 68.3°F20.2°C 70% 1.7 mph SW2.7 kmh SW 4.0 mph6.4 kmh 29.87 in1011.5 mb 0.00 in0.0 mm 0.00 in0.0 mm 0.00 in0.0 mm
03:30 AM 78.9°F26.1°C 68.3°F20.2°C 70% 1.3 mph SW2.1 kmh SW 5.0 mph8.0 kmh 29.87 in1011.5 mb 0.00 in0.0 mm 0.00 in0.0 mm 0.00 in0.0 mm
03:35 AM 79.0°F26.1°C 68.4°F20.2°C 70% 2.3 mph W3.7 kmh W 5.0 mph8.0 kmh 29.87 in1011.5 mb 0.00 in0.0 mm 0.00 in0.0 mm 0.00 in0.0 mm
03:40 AM 78.9°F26.1°C 68.3°F20.2°C 70% 1.0 mph SW1.6 kmh SW 5.0 mph8.0 kmh 29.87 in1011.5 mb 0.00 in0.0 mm 0.00 in0.0 mm 0.00 in0.0 mm
03:45 AM 78.8°F26.0°C 68.2°F20.1°C 70% 0.7 mph WSW1.1 kmh WSW 3.0 mph4.8 kmh 29.88 in1011.9 mb 0.00 in0.0 mm 0.00 in0.0 mm 0.00 in0.0 mm
03:50 AM 78.8°F26.0°C 68.2°F20.1°C 70% 1.1 mph WSW1.8 kmh WSW 3.0 mph4.8 kmh 29.88 in1011.9 mb 0.00 in0.0 mm 0.00 in0.0 mm 0.00 in0.0 mm
03:55 AM 78.8°F26.0°C 68.2°F20.1°C 70% 1.7 mph SW2.7 kmh SW 4.0 mph6.4 kmh 29.88 in1011.9 mb 0.00 in0.0 mm 0.00 in0.0 mm 0.00 in0.0 mm
04:00 AM 78.9°F26.1°C 68.3°F20.2°C 70% 2.1 mph SW3.4 kmh SW 5.0 mph8.0 kmh 29.87 in1011.5 mb 0.00 in0.0 mm 0.00 in0.0 mm 0.00 in0.0 mm
04:05 AM 78.9°F26.1°C 68.3°F20.2°C 70% 2.1 mph SW3.4 kmh SW 6.0 mph9.7 kmh 29.87 in1011.5 mb 0.00 in0.0 mm 0.00 in0.0 mm 0.00 in0.0 mm
04:10 AM 79.0°F26.1°C 68.4°F20.2°C 70% 1.1 mph SW1.8 kmh SW 6.0 mph9.7 kmh 29.88 in1011.9 mb 0.00 in0.0 mm 0.00 in0.0 mm 0.00 in0.0 mm
04:15 AM 79.1°F26.2°C 68.0°F20.0°C 69% 1.5 mph SW2.4 kmh SW 5.0 mph8.0 kmh 29.88 in1011.9 mb 0.00 in0.0 mm 0.00 in0.0 mm 0.00 in0.0 mm
04:20 AM 79.2°F26.2°C 68.1°F20.1°C 69% 2.3 mph SW3.7 kmh SW 5.0 mph8.0 kmh 29.88 in1011.9 mb 0.00 in0.0 mm 0.00 in0.0 mm 0.00 in0.0 mm
04:25 AM 79.2°F26.2°C 68.1°F20.1°C 69% 2.3 mph W3.7 kmh W 7.0 mph11.3 kmh 29.88 in1011.9 mb 0.00 in0.0 mm 0.00 in0.0 mm 0.00 in0.0 mm
04:30 AM 79.3°F26.3°C 68.2°F20.1°C 69% 2.4 mph SW3.9 kmh SW 7.0 mph11.3 kmh 29.88 in1011.9 mb 0.00 in0.0 mm 0.00 in0.0 mm 0.00 in0.0 mm
04:35 AM 79.3°F26.3°C 68.2°F20.1°C 69% 1.8 mph SW2.9 kmh SW 6.0 mph9.7 kmh 29.88 in1011.9 mb 0.00 in0.0 mm 0.00 in0.0 mm 0.00 in0.0 mm
04:40 AM 79.3°F26.3°C 68.2°F20.1°C 69% 2.8 mph WSW4.5 kmh WSW 7.0 mph11.3 kmh 29.88 in1011.9 mb 0.00 in0.0 mm 0.00 in0.0 mm 0.00 in0.0 mm
04:45 AM 79.2°F26.2°C 68.1°F20.1°C 69% 2.8 mph WSW4.5 kmh WSW 7.0 mph11.3 kmh 29.88 in1011.9 mb 0.00 in0.0 mm 0.00 in0.0 mm 0.00 in0.0 mm
04:50 AM 79.3°F26.3°C 68.2°F20.1°C 69% 3.0 mph SW4.8 kmh SW 6.0 mph9.7 kmh 29.89 in1012.2 mb 0.00 in0.0 mm 0.00 in0.0 mm 0.00 in0.0 mm
04:55 AM 79.2°F26.2°C 68.1°F20.1°C 69% 2.3 mph SW3.7 kmh SW 6.0 mph9.7 kmh 29.89 in1012.2 mb 0.00 in0.0 mm 0.00 in0.0 mm 0.00 in0.0 mm
05:00 AM 79.1°F26.2°C 68.0°F20.0°C 69% 1.6 mph WSW2.6 kmh WSW 5.0 mph8.0 kmh 29.89 in1012.2 mb 0.00 in0.0 mm 0.00 in0.0 mm 0.00 in0.0 mm
05:05 AM 79.0°F26.1°C 67.9°F19.9°C 69% 2.6 mph WSW4.2 kmh WSW 6.0 mph9.7 kmh 29.90 in1012.5 mb 0.00 in0.0 mm 0.00 in0.0 mm 0.00 in0.0 mm
05:10 AM 79.0°F26.1°C 67.9°F19.9°C 69% 1.7 mph SW2.7 kmh SW 6.0 mph9.7 kmh 29.90 in1012.5 mb 0.00 in0.0 mm 0.00 in0.0 mm 0.00 in0.0 mm
05:15 AM 78.9°F26.1°C 67.8°F19.9°C 69% 2.5 mph SW4.0 kmh SW 6.0 mph9.7 kmh 29.90 in1012.5 mb 0.00 in0.0 mm 0.00 in0.0 mm 0.00 in0.0 mm
05:20 AM 78.7°F25.9°C 67.7°F19.8°C 69% 1.9 mph WSW3.1 kmh WSW 5.0 mph8.0 kmh 29.90 in1012.5 mb 0.00 in0.0 mm 0.00 in0.0 mm 0.00 in0.0 mm
05:25 AM 78.6°F25.9°C 67.6°F19.8°C 69% 2.2 mph WSW3.5 kmh WSW 6.0 mph9.7 kmh 29.90 in1012.5 mb 0.00 in0.0 mm 0.00 in0.0 mm 0.00 in0.0 mm
05:30 AM 78.6°F25.9°C 68.0°F20.0°C 70% 1.8 mph WSW2.9 kmh WSW 6.0 mph9.7 kmh 29.90 in1012.5 mb 0.00 in0.0 mm 0.00 in0.0 mm 0.00 in0.0 mm
05:35 AM 78.5°F25.8°C 67.9°F19.9°C 70% 1.9 mph SW3.1 kmh SW 5.0 mph8.0 kmh 29.90 in1012.5 mb 0.00 in0.0 mm 0.00 in0.0 mm 0.00 in0.0 mm
05:40 AM 78.5°F25.8°C 67.9°F19.9°C 70% 1.4 mph SW2.3 kmh SW 4.0 mph6.4 kmh 29.90 in1012.5 mb 0.00 in0.0 mm 0.00 in0.0 mm 0.00 in0.0 mm
05:45 AM 78.5°F25.8°C 67.9°F19.9°C 70% 1.5 mph WSW2.4 kmh WSW 4.0 mph6.4 kmh 29.90 in1012.5 mb 0.00 in0.0 mm 0.00 in0.0 mm 0.00 in0.0 mm
05:50 AM 78.5°F25.8°C 67.9°F19.9°C 70% 1.3 mph SW2.1 kmh SW 4.0 mph6.4 kmh 29.90 in1012.5 mb 0.00 in0.0 mm 0.00 in0.0 mm 0.00 in0.0 mm
05:55 AM 78.5°F25.8°C 67.9°F19.9°C 70% 2.0 mph WSW3.2 kmh WSW 5.0 mph8.0 kmh 29.90 in1012.5 mb 0.00 in0.0 mm 0.00 in0.0 mm 0.00 in0.0 mm
06:00 AM 78.5°F25.8°C 67.9°F19.9°C 70% 2.4 mph WSW3.9 kmh WSW 5.0 mph8.0 kmh 29.91 in1012.9 mb 0.00 in0.0 mm 0.00 in0.0 mm 0.00 in0.0 mm
06:05 AM 78.7°F25.9°C 68.1°F20.1°C 70% 2.3 mph W3.7 kmh W 6.0 mph9.7 kmh 29.91 in1012.9 mb 0.00 in0.0 mm 0.00 in0.0 mm 0.00 in0.0 mm
06:10 AM 78.7°F25.9°C 68.1°F20.1°C 70% 1.7 mph WSW2.7 kmh WSW 6.0 mph9.7 kmh 29.91 in1012.9 mb 0.00 in0.0 mm 0.00 in0.0 mm 0.00 in0.0 mm
06:15 AM 79.0°F26.1°C 68.4°F20.2°C 70% 2.5 mph W4.0 kmh W 5.0 mph8.0 kmh 29.91 in1012.9 mb 0.00 in0.0 mm 0.00 in0.0 mm 0.00 in0.0 mm
06:20 AM 79.0°F26.1°C 68.4°F20.2°C 70% 2.4 mph W3.9 kmh W 6.0 mph9.7 kmh 29.92 in1013.2 mb 0.00 in0.0 mm 0.00 in0.0 mm 0.00 in0.0 mm
06:25 AM 78.9°F26.1°C 68.3°F20.2°C 70% 1.6 mph SW2.6 kmh SW 6.0 mph9.7 kmh 29.92 in1013.2 mb 0.00 in0.0 mm 0.00 in0.0 mm 0.00 in0.0 mm
06:30 AM 78.9°F26.1°C 68.3°F20.2°C 70% 2.3 mph WSW3.7 kmh WSW 5.0 mph8.0 kmh 29.92 in1013.2 mb 0.00 in0.0 mm 0.00 in0.0 mm 0.00 in0.0 mm
06:35 AM 78.9°F26.1°C 68.3°F20.2°C 70% 2.2 mph WSW3.5 kmh WSW 5.0 mph8.0 kmh 29.92 in1013.2 mb 0.00 in0.0 mm 0.00 in0.0 mm 0.00 in0.0 mm
06:40 AM 78.9°F26.1°C 68.3°F20.2°C 70% 2.4 mph SW3.9 kmh SW 6.0 mph9.7 kmh 29.92 in1013.2 mb 0.00 in0.0 mm 0.00 in0.0 mm 0.00 in0.0 mm
06:45 AM 79.1°F26.2°C 68.9°F20.5°C 71% 2.6 mph SW4.2 kmh SW 6.0 mph9.7 kmh 29.92 in1013.2 mb 0.00 in0.0 mm 0.00 in0.0 mm 0.00 in0.0 mm
06:50 AM 79.1°F26.2°C 68.9°F20.5°C 71% 2.3 mph SW3.7 kmh SW 6.0 mph9.7 kmh 29.92 in1013.2 mb 0.00 in0.0 mm 0.00 in0.0 mm 0.00 in0.0 mm
06:55 AM 79.1°F26.2°C 68.9°F20.5°C 71% 2.3 mph SW3.7 kmh SW 6.0 mph9.7 kmh 29.92 in1013.2 mb 0.00 in0.0 mm 0.00 in0.0 mm 0.00 in0.0 mm
07:00 AM 79.2°F26.2°C 68.6°F20.3°C 70% 2.7 mph SW4.3 kmh SW 6.0 mph9.7 kmh 29.92 in1013.2 mb 0.00 in0.0 mm 0.00 in0.0 mm 0.00 in0.0 mm
07:05 AM 79.3°F26.3°C 69.1°F20.6°C 71% 2.5 mph SW4.0 kmh SW 6.0 mph9.7 kmh 29.92 in1013.2 mb 0.00 in0.0 mm 0.00 in0.0 mm 0.00 in0.0 mm
07:10 AM 79.3°F26.3°C 68.6°F20.3°C 70% 4.1 mph SW6.6 kmh SW 9.0 mph14.5 kmh 29.92 in1013.2 mb 0.00 in0.0 mm 0.00 in0.0 mm 0.00 in0.0 mm
07:15 AM 79.5°F26.4°C 69.3°F20.7°C 71% 2.8 mph SW4.5 kmh SW 9.0 mph14.5 kmh 29.93 in1013.5 mb 0.00 in0.0 mm 0.00 in0.0 mm 0.00 in0.0 mm
07:20 AM 79.6°F26.4°C 69.3°F20.7°C 71% 2.9 mph WSW4.7 kmh WSW 7.0 mph11.3 kmh 29.93 in1013.5 mb 0.00 in0.0 mm 0.00 in0.0 mm 0.00 in0.0 mm
07:25 AM 79.8°F26.6°C 69.1°F20.6°C 70% 2.9 mph SW4.7 kmh SW 7.0 mph11.3 kmh 29.93 in1013.5 mb 0.00 in0.0 mm 0.00 in0.0 mm 0.00 in0.0 mm
07:30 AM 80.0°F26.7°C 69.3°F20.7°C 70% 2.8 mph SW4.5 kmh SW 8.0 mph12.9 kmh 29.93 in1013.5 mb 0.00 in0.0 mm 0.00 in0.0 mm 0.00 in0.0 mm
07:35 AM 80.1°F26.7°C 69.4°F20.8°C 70% 3.5 mph SW5.6 kmh SW 8.0 mph12.9 kmh 29.93 in1013.5 mb 0.00 in0.0 mm 0.00 in0.0 mm 0.00 in0.0 mm
07:40 AM 80.3°F26.8°C 69.6°F20.9°C 70% 2.5 mph WSW4.0 kmh WSW 7.0 mph11.3 kmh 29.93 in1013.5 mb 0.00 in0.0 mm 0.00 in0.0 mm 0.00 in0.0 mm
07:45 AM 80.5°F26.9°C 69.8°F21.0°C 70% 3.1 mph WSW5.0 kmh WSW 8.0 mph12.9 kmh 29.93 in1013.5 mb 0.00 in0.0 mm 0.00 in0.0 mm 0.00 in0.0 mm
07:50 AM 80.7°F27.1°C 70.0°F21.1°C 70% 2.4 mph WSW3.9 kmh WSW 8.0 mph12.9 kmh 29.93 in1013.5 mb 0.00 in0.0 mm 0.00 in0.0 mm 0.00 in0.0 mm
07:55 AM 80.8°F27.1°C 70.1°F21.2°C 70% 3.5 mph WSW5.6 kmh WSW 7.0 mph11.3 kmh 29.94 in1013.9 mb 0.00 in0.0 mm 0.00 in0.0 mm 0.00 in0.0 mm
08:00 AM 80.9°F27.2°C 70.2°F21.2°C 70% 3.3 mph SW5.3 kmh SW 8.0 mph12.9 kmh 29.94 in1013.9 mb 0.00 in0.0 mm 0.00 in0.0 mm 0.00 in0.0 mm
08:05 AM 80.8°F27.1°C 70.1°F21.2°C 70% 3.3 mph SW5.3 kmh SW 8.0 mph12.9 kmh 29.94 in1013.9 mb 0.00 in0.0 mm 0.00 in0.0 mm 0.00 in0.0 mm
08:10 AM 81.0°F27.2°C 70.7°F21.5°C 71% 2.4 mph WSW3.9 kmh WSW 7.0 mph11.3 kmh 29.94 in1013.9 mb 0.00 in0.0 mm 0.00 in0.0 mm 0.00 in0.0 mm
08:15 AM 80.9°F27.2°C 70.2°F21.2°C 70% 4.0 mph WSW6.4 kmh WSW 8.0 mph12.9 kmh 29.94 in1013.9 mb 0.00 in0.0 mm 0.00 in0.0 mm 0.00 in0.0 mm
08:20 AM 81.2°F27.3°C 70.5°F21.4°C 70% 3.6 mph SW5.8 kmh SW 8.0 mph12.9 kmh 29.94 in1013.9 mb 0.00 in0.0 mm 0.00 in0.0 mm 0.00 in0.0 mm
08:25 AM 81.6°F27.6°C 70.8°F21.6°C 70% 3.6 mph SW5.8 kmh SW 8.0 mph12.9 kmh 29.94 in1013.9 mb 0.00 in0.0 mm 0.00 in0.0 mm 0.00 in0.0 mm
08:30 AM 82.3°F27.9°C 71.5°F21.9°C 70% 3.6 mph SW5.8 kmh SW 8.0 mph12.9 kmh 29.94 in1013.9 mb 0.00 in0.0 mm 0.00 in0.0 mm 0.00 in0.0 mm
08:35 AM 82.4°F28.0°C 71.2°F21.8°C 69% 5.1 mph SW8.2 kmh SW 10.0 mph16.1 kmh 29.94 in1013.9 mb 0.00 in0.0 mm 0.00 in0.0 mm 0.00 in0.0 mm
08:40 AM 82.4°F28.0°C 70.8°F21.6°C 68% 5.5 mph SW8.9 kmh SW 10.0 mph16.1 kmh 29.93 in1013.5 mb 0.00 in0.0 mm 0.00 in0.0 mm 0.00 in0.0 mm
08:45 AM 81.8°F27.7°C 71.0°F21.7°C 70% 4.1 mph SW6.6 kmh SW 10.0 mph16.1 kmh 29.94 in1013.9 mb 0.00 in0.0 mm 0.00 in0.0 mm 0.00 in0.0 mm
08:50 AM 81.6°F27.6°C 70.8°F21.6°C 70% 4.8 mph SW7.7 kmh SW 11.0 mph17.7 kmh 29.94 in1013.9 mb 0.00 in0.0 mm 0.00 in0.0 mm 0.00 in0.0 mm
08:55 AM 81.5°F27.5°C 70.7°F21.5°C 70% 3.9 mph SW6.3 kmh SW 11.0 mph17.7 kmh 29.93 in1013.5 mb 0.00 in0.0 mm 0.00 in0.0 mm 0.00 in0.0 mm
09:00 AM 81.4°F27.4°C 70.7°F21.5°C 70% 2.7 mph SW4.3 kmh SW 7.0 mph11.3 kmh 29.93 in1013.5 mb 0.00 in0.0 mm 0.00 in0.0 mm 0.00 in0.0 mm
09:05 AM 81.9°F27.7°C 71.1°F21.7°C 70% 4.5 mph SW7.2 kmh SW 8.0 mph12.9 kmh 29.93 in1013.5 mb 0.00 in0.0 mm 0.00 in0.0 mm 0.00 in0.0 mm
09:10 AM 82.6°F28.1°C 71.4°F21.9°C 69% 4.1 mph SW6.6 kmh SW 8.0 mph12.9 kmh 29.93 in1013.5 mb 0.00 in0.0 mm 0.00 in0.0 mm 0.00 in0.0 mm
09:15 AM 83.3°F28.5°C 72.0°F22.2°C 69% 5.2 mph SW8.4 kmh SW 8.0 mph12.9 kmh 29.93 in1013.5 mb 0.00 in0.0 mm 0.00 in0.0 mm 0.00 in0.0 mm
09:20 AM 83.6°F28.7°C 71.9°F22.2°C 68% 4.7 mph SW7.6 kmh SW 9.0 mph14.5 kmh 29.93 in1013.5 mb 0.00 in0.0 mm 0.00 in0.0 mm 0.00 in0.0 mm
09:25 AM 84.1°F28.9°C 72.4°F22.4°C 68% 5.0 mph SW8.0 kmh SW 11.0 mph17.7 kmh 29.94 in1013.9 mb 0.00 in0.0 mm 0.00 in0.0 mm 0.00 in0.0 mm
09:30 AM 84.3°F29.1°C 73.0°F22.8°C 69% 5.8 mph SSW9.3 kmh SSW 11.0 mph17.7 kmh 29.94 in1013.9 mb 0.00 in0.0 mm 0.00 in0.0 mm 0.00 in0.0 mm
09:35 AM 84.7°F29.3°C 72.1°F22.3°C 66% 6.4 mph SW10.3 kmh SW 11.0 mph17.7 kmh 29.94 in1013.9 mb 0.00 in0.0 mm 0.00 in0.0 mm 0.00 in0.0 mm
09:40 AM 85.4°F29.7°C 72.7°F22.6°C 66% 4.0 mph SW6.4 kmh SW 11.0 mph17.7 kmh 29.94 in1013.9 mb 0.00 in0.0 mm 0.00 in0.0 mm 0.00 in0.0 mm
09:45 AM 85.7°F29.8°C 72.5°F22.5°C 65% 4.1 mph SW6.6 kmh SW 9.0 mph14.5 kmh 29.94 in1013.9 mb 0.00 in0.0 mm 0.00 in0.0 mm 0.00 in0.0 mm
09:50 AM 85.9°F29.9°C 72.3°F22.4°C 64% 4.5 mph WSW7.2 kmh WSW 11.0 mph17.7 kmh 29.94 in1013.9 mb 0.00 in0.0 mm 0.00 in0.0 mm 0.00 in0.0 mm
09:55 AM 86.3°F30.2°C 73.1°F22.8°C 65% 3.4 mph WSW5.5 kmh WSW 11.0 mph17.7 kmh 29.94 in1013.9 mb 0.00 in0.0 mm 0.00 in0.0 mm 0.00 in0.0 mm
10:00 AM 86.2°F30.1°C 72.6°F22.6°C 64% 3.8 mph W6.1 kmh W 9.0 mph14.5 kmh 29.94 in1013.9 mb 0.00 in0.0 mm 0.00 in0.0 mm 0.00 in0.0 mm
10:05 AM 86.2°F30.1°C 72.6°F22.6°C 64% 4.3 mph SW6.9 kmh SW 9.0 mph14.5 kmh 29.94 in1013.9 mb 0.00 in0.0 mm 0.00 in0.0 mm 0.00 in0.0 mm
10:10 AM 85.7°F29.8°C 72.1°F22.3°C 64% 3.7 mph WSW6.0 kmh WSW 9.0 mph14.5 kmh 29.94 in1013.9 mb 0.00 in0.0 mm 0.00 in0.0 mm 0.00 in0.0 mm
10:15 AM 86.0°F30.0°C 72.4°F22.4°C 64% 4.4 mph SW7.1 kmh SW 8.0 mph12.9 kmh 29.94 in1013.9 mb 0.00 in0.0 mm 0.00 in0.0 mm 0.00 in0.0 mm
10:20 AM 86.3°F30.2°C 72.2°F22.3°C 63% 4.2 mph SW6.8 kmh SW 9.0 mph14.5 kmh 29.94 in1013.9 mb 0.00 in0.0 mm 0.00 in0.0 mm 0.00 in0.0 mm
10:25 AM 86.4°F30.2°C 72.8°F22.7°C 64% 5.2 mph SW8.4 kmh SW 12.0 mph19.3 kmh 29.94 in1013.9 mb 0.00 in0.0 mm 0.00 in0.0 mm 0.00 in0.0 mm
10:30 AM 86.4°F30.2°C 73.2°F22.9°C 65% 4.2 mph SW6.8 kmh SW 12.0 mph19.3 kmh 29.94 in1013.9 mb 0.00 in0.0 mm 0.00 in0.0 mm 0.00 in0.0 mm
10:35 AM 86.5°F30.3°C 73.3°F22.9°C 65% 4.1 mph SW6.6 kmh SW 9.0 mph14.5 kmh 29.94 in1013.9 mb 0.00 in0.0 mm 0.00 in0.0 mm 0.00 in0.0 mm
10:40 AM 86.8°F30.4°C 73.1°F22.8°C 64% 6.4 mph SSW10.3 kmh SSW 12.0 mph19.3 kmh 29.94 in1013.9 mb 0.00 in0.0 mm 0.00 in0.0 mm 0.00 in0.0 mm
10:45 AM 87.6°F30.9°C 74.8°F23.8°C 66% 6.0 mph SW9.7 kmh SW 13.0 mph20.9 kmh 29.94 in1013.9 mb 0.00 in0.0 mm 0.00 in0.0 mm 0.00 in0.0 mm
10:50 AM 87.8°F31.0°C 73.1°F22.8°C 62% 5.4 mph SSW8.7 kmh SSW 13.0 mph20.9 kmh 29.93 in1013.5 mb 0.00 in0.0 mm 0.00 in0.0 mm 0.00 in0.0 mm
10:55 AM 88.1°F31.2°C 73.9°F23.3°C 63% 4.7 mph SW7.6 kmh SW 10.0 mph16.1 kmh 29.94 in1013.9 mb 0.00 in0.0 mm 0.00 in0.0 mm 0.00 in0.0 mm
11:00 AM 88.0°F31.1°C 74.3°F23.5°C 64% 3.7 mph SW6.0 kmh SW 9.0 mph14.5 kmh 29.93 in1013.5 mb 0.00 in0.0 mm 0.00 in0.0 mm 0.00 in0.0 mm
11:05 AM 87.8°F31.0°C 74.1°F23.4°C 64% 5.9 mph SW9.5 kmh SW 10.0 mph16.1 kmh 29.93 in1013.5 mb 0.00 in0.0 mm 0.00 in0.0 mm 0.00 in0.0 mm
11:10 AM 87.8°F31.0°C 74.5°F23.6°C 65% 5.0 mph SW8.0 kmh SW 12.0 mph19.3 kmh 29.93 in1013.5 mb 0.00 in0.0 mm 0.00 in0.0 mm 0.00 in0.0 mm
11:15 AM 88.6°F31.4°C 73.9°F23.3°C 62% 4.8 mph SW7.7 kmh SW 12.0 mph19.3 kmh 29.93 in1013.5 mb 0.00 in0.0 mm 0.00 in0.0 mm 0.00 in0.0 mm
11:20 AM 88.4°F31.3°C 74.6°F23.7°C 64% 5.9 mph SSW9.5 kmh SSW 12.0 mph19.3 kmh 29.93 in1013.5 mb 0.00 in0.0 mm 0.00 in0.0 mm 0.00 in0.0 mm
11:25 AM 89.0°F31.7°C 74.3°F23.5°C 62% 4.5 mph SW7.2 kmh SW 12.0 mph19.3 kmh 29.93 in1013.5 mb 0.00 in0.0 mm 0.00 in0.0 mm 0.00 in0.0 mm
11:30 AM 89.6°F32.0°C 74.8°F23.8°C 62% 4.2 mph WSW6.8 kmh WSW 11.0 mph17.7 kmh 29.93 in1013.5 mb 0.00 in0.0 mm 0.00 in0.0 mm 0.00 in0.0 mm
11:35 AM 89.5°F31.9°C 74.7°F23.7°C 62% 5.1 mph SW8.2 kmh SW 12.0 mph19.3 kmh 29.93 in1013.5 mb 0.00 in0.0 mm 0.00 in0.0 mm 0.00 in0.0 mm
11:40 AM 90.3°F32.4°C 73.5°F23.1°C 58% 4.8 mph SW7.7 kmh SW 12.0 mph19.3 kmh 29.93 in1013.5 mb 0.00 in0.0 mm 0.00 in0.0 mm 0.00 in0.0 mm
11:45 AM 90.7°F32.6°C 73.9°F23.3°C 58% 4.9 mph WSW7.9 kmh WSW 11.0 mph17.7 kmh 29.92 in1013.2 mb 0.00 in0.0 mm 0.00 in0.0 mm 0.00 in0.0 mm
11:50 AM 90.2°F32.3°C 73.9°F23.3°C 59% 3.8 mph WSW6.1 kmh WSW 11.0 mph17.7 kmh 29.93 in1013.5 mb 0.00 in0.0 mm 0.00 in0.0 mm 0.00 in0.0 mm
11:55 AM 89.5°F31.9°C 73.7°F23.2°C 60% 5.7 mph SW9.2 kmh SW 13.0 mph20.9 kmh 29.92 in1013.2 mb 0.00 in0.0 mm 0.00 in0.0 mm 0.00 in0.0 mm
12:00 PM 88.7°F31.5°C 73.5°F23.1°C 61% 4.9 mph SW7.9 kmh SW 13.0 mph20.9 kmh 29.93 in1013.5 mb 0.00 in0.0 mm 0.00 in0.0 mm 0.00 in0.0 mm
12:05 PM 88.6°F31.4°C 73.4°F23.0°C 61% 5.8 mph SSW9.3 kmh SSW 10.0 mph16.1 kmh 29.92 in1013.2 mb 0.00 in0.0 mm 0.00 in0.0 mm 0.00 in0.0 mm
12:10 PM 88.8°F31.6°C 73.6°F23.1°C 61% 3.5 mph SW5.6 kmh SW 10.0 mph16.1 kmh 29.92 in1013.2 mb 0.00 in0.0 mm 0.00 in0.0 mm 0.00 in0.0 mm
12:15 PM 89.0°F31.7°C 73.8°F23.2°C 61% 5.7 mph SSW9.2 kmh SSW 10.0 mph16.1 kmh 29.92 in1013.2 mb 0.00 in0.0 mm 0.00 in0.0 mm 0.00 in0.0 mm
12:20 PM 89.2°F31.8°C 73.0°F22.8°C 59% 4.6 mph SW7.4 kmh SW 10.0 mph16.1 kmh 29.92 in1013.2 mb 0.00 in0.0 mm 0.00 in0.0 mm 0.00 in0.0 mm
12:25 PM 89.0°F31.7°C 72.8°F22.7°C 59% 5.5 mph SW8.9 kmh SW 13.0 mph20.9 kmh 29.91 in1012.9 mb 0.00 in0.0 mm 0.00 in0.0 mm 0.00 in0.0 mm
12:30 PM 88.6°F31.4°C 72.4°F22.4°C 59% 4.2 mph SSW6.8 kmh SSW 13.0 mph20.9 kmh 29.91 in1012.9 mb 0.00 in0.0 mm 0.00 in0.0 mm 0.00 in0.0 mm
12:35 PM 89.2°F31.8°C 74.0°F23.3°C 61% 6.0 mph SW9.7 kmh SW 11.0 mph17.7 kmh 29.91 in1012.9 mb 0.00 in0.0 mm 0.00 in0.0 mm 0.00 in0.0 mm
12:40 PM 90.1°F32.3°C 74.3°F23.5°C 60% 5.4 mph SSW8.7 kmh SSW 12.0 mph19.3 kmh 29.90 in1012.5 mb 0.00 in0.0 mm 0.00 in0.0 mm 0.00 in0.0 mm
12:45 PM 90.3°F32.4°C 74.0°F23.3°C 59% 6.9 mph SSW11.1 kmh SSW 13.0 mph20.9 kmh 29.90 in1012.5 mb 0.00 in0.0 mm 0.00 in0.0 mm 0.00 in0.0 mm
12:50 PM 91.1°F32.8°C 74.2°F23.4°C 58% 6.7 mph SSW10.8 kmh SSW 13.0 mph20.9 kmh 29.90 in1012.5 mb 0.00 in0.0 mm 0.00 in0.0 mm 0.00 in0.0 mm
12:55 PM 91.6°F33.1°C 74.2°F23.4°C 57% 6.1 mph SSW9.8 kmh SSW 13.0 mph20.9 kmh 29.91 in1012.9 mb 0.00 in0.0 mm 0.00 in0.0 mm 0.00 in0.0 mm
01:00 PM 92.0°F33.3°C 74.5°F23.6°C 57% 6.9 mph SSW11.1 kmh SSW 13.0 mph20.9 kmh 29.91 in1012.9 mb 0.00 in0.0 mm 0.00 in0.0 mm 0.00 in0.0 mm
01:05 PM 92.6°F33.7°C 74.0°F23.3°C 55% 4.8 mph SW7.7 kmh SW 13.0 mph20.9 kmh 29.90 in1012.5 mb 0.00 in0.0 mm 0.00 in0.0 mm 0.00 in0.0 mm
01:10 PM 92.4°F33.6°C 73.3°F22.9°C 54% 4.7 mph SW7.6 kmh SW 11.0 mph17.7 kmh 29.90 in1012.5 mb 0.00 in0.0 mm 0.00 in0.0 mm 0.00 in0.0 mm
01:15 PM 93.2°F34.0°C 74.6°F23.7°C 55% 4.3 mph SW6.9 kmh SW 10.0 mph16.1 kmh 29.90 in1012.5 mb 0.00 in0.0 mm 0.00 in0.0 mm 0.00 in0.0 mm
01:20 PM 93.3°F34.1°C 73.6°F23.1°C 53% 5.3 mph SW8.5 kmh SW 12.0 mph19.3 kmh 29.90 in1012.5 mb 0.00 in0.0 mm 0.00 in0.0 mm 0.00 in0.0 mm
01:25 PM 93.4°F34.1°C 74.8°F23.8°C 55% 3.9 mph SW6.3 kmh SW 12.0 mph19.3 kmh 29.90 in1012.5 mb 0.00 in0.0 mm 0.00 in0.0 mm 0.00 in0.0 mm
01:30 PM 93.7°F34.3°C 73.4°F23.0°C 52% 3.9 mph WSW6.3 kmh WSW 11.0 mph17.7 kmh 29.90 in1012.5 mb 0.00 in0.0 mm 0.00 in0.0 mm 0.00 in0.0 mm
01:35 PM 93.4°F34.1°C 72.5°F22.5°C 51% 5.3 mph WSW8.5 kmh WSW 12.0 mph19.3 kmh 29.90 in1012.5 mb 0.00 in0.0 mm 0.00 in0.0 mm 0.00 in0.0 mm
01:40 PM 92.9°F33.8°C 73.2°F22.9°C 53% 7.2 mph SW11.6 kmh SW 14.0 mph22.5 kmh 29.89 in1012.2 mb 0.00 in0.0 mm 0.00 in0.0 mm 0.00 in0.0 mm
01:45 PM 92.8°F33.8°C 73.1°F22.8°C 53% 6.9 mph SW11.1 kmh SW 15.0 mph24.1 kmh 29.89 in1012.2 mb 0.00 in0.0 mm 0.00 in0.0 mm 0.00 in0.0 mm
01:50 PM 93.2°F34.0°C 74.0°F23.3°C 54% 6.6 mph SW10.6 kmh SW 15.0 mph24.1 kmh 29.89 in1012.2 mb 0.00 in0.0 mm 0.00 in0.0 mm 0.00 in0.0 mm
01:55 PM 93.0°F33.9°C 73.3°F22.9°C 53% 8.0 mph SW12.9 kmh SW 14.0 mph22.5 kmh 29.89 in1012.2 mb 0.00 in0.0 mm 0.00 in0.0 mm 0.00 in0.0 mm
02:00 PM 93.2°F34.0°C 72.9°F22.7°C 52% 7.7 mph SSW12.4 kmh SSW 16.0 mph25.7 kmh 29.89 in1012.2 mb 0.00 in0.0 mm 0.00 in0.0 mm 0.00 in0.0 mm
02:05 PM 93.5°F34.2°C 73.2°F22.9°C 52% 7.7 mph SSW12.4 kmh SSW 17.0 mph27.4 kmh 29.89 in1012.2 mb 0.00 in0.0 mm 0.00 in0.0 mm 0.00 in0.0 mm
02:10 PM 93.7°F34.3°C 72.8°F22.7°C 51% 7.0 mph SSW11.3 kmh SSW 17.0 mph27.4 kmh 29.89 in1012.2 mb 0.00 in0.0 mm 0.00 in0.0 mm 0.00 in0.0 mm
02:15 PM 93.6°F34.2°C 72.7°F22.6°C 51% 7.5 mph SSW12.1 kmh SSW 14.0 mph22.5 kmh 29.89 in1012.2 mb 0.00 in0.0 mm 0.00 in0.0 mm 0.00 in0.0 mm
02:20 PM 93.7°F34.3°C 72.8°F22.7°C 51% 7.8 mph SSW12.6 kmh SSW 16.0 mph25.7 kmh 29.89 in1012.2 mb 0.00 in0.0 mm 0.00 in0.0 mm 0.00 in0.0 mm
02:25 PM 93.8°F34.3°C 72.9°F22.7°C 51% 8.5 mph SSW13.7 kmh SSW 16.0 mph25.7 kmh 29.88 in1011.9 mb 0.00 in0.0 mm 0.00 in0.0 mm 0.00 in0.0 mm
02:30 PM 93.9°F34.4°C 73.6°F23.1°C 52% 7.1 mph SW11.4 kmh SW 17.0 mph27.4 kmh 29.88 in1011.9 mb 0.00 in0.0 mm 0.00 in0.0 mm 0.00 in0.0 mm
02:35 PM 94.2°F34.6°C 73.3°F22.9°C 51% 5.8 mph SW9.3 kmh SW 17.0 mph27.4 kmh 29.88 in1011.9 mb 0.00 in0.0 mm 0.00 in0.0 mm 0.00 in0.0 mm
02:40 PM 93.8°F34.3°C 72.9°F22.7°C 51% 8.8 mph SSW14.2 kmh SSW 16.0 mph25.7 kmh 29.88 in1011.9 mb 0.00 in0.0 mm 0.00 in0.0 mm 0.00 in0.0 mm
02:45 PM 93.7°F34.3°C 72.8°F22.7°C 51% 8.5 mph SSW13.7 kmh SSW 19.0 mph30.6 kmh 29.88 in1011.9 mb 0.00 in0.0 mm 0.00 in0.0 mm 0.00 in0.0 mm
02:50 PM 93.7°F34.3°C 72.2°F22.3°C 50% 8.5 mph SSW13.7 kmh SSW 19.0 mph30.6 kmh 29.88 in1011.9 mb 0.00 in0.0 mm 0.00 in0.0 mm 0.00 in0.0 mm
02:55 PM 93.8°F34.3°C 71.7°F22.1°C 49% 7.5 mph SW12.1 kmh SW 15.0 mph24.1 kmh 29.88 in1011.9 mb 0.00 in0.0 mm 0.00 in0.0 mm 0.00 in0.0 mm
03:00 PM 93.8°F34.3°C 72.3°F22.4°C 50% 7.1 mph SSW11.4 kmh SSW 15.0 mph24.1 kmh 29.88 in1011.9 mb 0.00 in0.0 mm 0.00 in0.0 mm 0.00 in0.0 mm
03:05 PM 93.8°F34.3°C 71.7°F22.1°C 49% 8.2 mph SSW13.2 kmh SSW 15.0 mph24.1 kmh 29.88 in1011.9 mb 0.00 in0.0 mm 0.00 in0.0 mm 0.00 in0.0 mm
03:10 PM 93.5°F34.2°C 72.6°F22.6°C 51% 8.8 mph SSW14.2 kmh SSW 17.0 mph27.4 kmh 29.88 in1011.9 mb 0.00 in0.0 mm 0.00 in0.0 mm 0.00 in0.0 mm
03:15 PM 93.7°F34.3°C 71.6°F22.0°C 49% 7.6 mph SSW12.2 kmh SSW 17.0 mph27.4 kmh 29.87 in1011.5 mb 0.00 in0.0 mm 0.00 in0.0 mm 0.00 in0.0 mm
03:20 PM 93.8°F34.3°C 71.7°F22.1°C 49% 8.3 mph SW13.4 kmh SW 15.0 mph24.1 kmh 29.87 in1011.5 mb 0.00 in0.0 mm 0.00 in0.0 mm 0.00 in0.0 mm
03:25 PM 94.0°F34.4°C 71.9°F22.2°C 49% 6.3 mph SSW10.1 kmh SSW 15.0 mph24.1 kmh 29.87 in1011.5 mb 0.00 in0.0 mm 0.00 in0.0 mm 0.00 in0.0 mm
03:30 PM 94.0°F34.4°C 71.9°F22.2°C 49% 7.9 mph SW12.7 kmh SW 15.0 mph24.1 kmh 29.86 in1011.2 mb 0.00 in0.0 mm 0.00 in0.0 mm 0.00 in0.0 mm
03:35 PM 94.0°F34.4°C 71.9°F22.2°C 49% 6.3 mph SW10.1 kmh SW 14.0 mph22.5 kmh 29.86 in1011.2 mb 0.00 in0.0 mm 0.00 in0.0 mm 0.00 in0.0 mm
03:40 PM 94.2°F34.6°C 72.7°F22.6°C 50% 7.6 mph SW12.2 kmh SW 14.0 mph22.5 kmh 29.86 in1011.2 mb 0.00 in0.0 mm 0.00 in0.0 mm 0.00 in0.0 mm
03:45 PM 94.1°F34.5°C 72.6°F22.6°C 50% 7.7 mph SW12.4 kmh SW 15.0 mph24.1 kmh 29.87 in1011.5 mb 0.00 in0.0 mm 0.00 in0.0 mm 0.00 in0.0 mm
03:50 PM 93.9°F34.4°C 72.4°F22.4°C 50% 7.2 mph SW11.6 kmh SW 15.0 mph24.1 kmh 29.86 in1011.2 mb 0.00 in0.0 mm 0.00 in0.0 mm 0.00 in0.0 mm
03:55 PM 94.0°F34.4°C 71.9°F22.2°C 49% 7.1 mph SSW11.4 kmh SSW 13.0 mph20.9 kmh 29.86 in1011.2 mb 0.00 in0.0 mm 0.00 in0.0 mm 0.00 in0.0 mm
04:00 PM 94.0°F34.4°C 71.3°F21.8°C 48% 7.9 mph SSW12.7 kmh SSW 14.0 mph22.5 kmh 29.86 in1011.2 mb 0.00 in0.0 mm 0.00 in0.0 mm 0.00 in0.0 mm
04:05 PM 94.0°F34.4°C 71.9°F22.2°C 49% 7.4 mph SW11.9 kmh SW 18.0 mph29.0 kmh 29.86 in1011.2 mb 0.00 in0.0 mm 0.00 in0.0 mm 0.00 in0.0 mm
04:10 PM 94.0°F34.4°C 73.1°F22.8°C 51% 7.1 mph SW11.4 kmh SW 18.0 mph29.0 kmh 29.86 in1011.2 mb 0.00 in0.0 mm 0.00 in0.0 mm 0.00 in0.0 mm
04:15 PM 93.8°F34.3°C 72.3°F22.4°C 50% 9.0 mph SSW14.5 kmh SSW 18.0 mph29.0 kmh 29.86 in1011.2 mb 0.00 in0.0 mm 0.00 in0.0 mm 0.00 in0.0 mm
04:20 PM 93.8°F34.3°C 72.3°F22.4°C 50% 7.2 mph SW11.6 kmh SW 18.0 mph29.0 kmh 29.86 in1011.2 mb 0.00 in0.0 mm 0.00 in0.0 mm 0.00 in0.0 mm
04:25 PM 93.9°F34.4°C 71.8°F22.1°C 49% 6.9 mph SSW11.1 kmh SSW 13.0 mph20.9 kmh 29.86 in1011.2 mb 0.00 in0.0 mm 0.00 in0.0 mm 0.00 in0.0 mm
04:30 PM 94.0°F34.4°C 71.3°F21.8°C 48% 8.0 mph SW12.9 kmh SW 16.0 mph25.7 kmh 29.86 in1011.2 mb 0.00 in0.0 mm 0.00 in0.0 mm 0.00 in0.0 mm
04:35 PM 94.1°F34.5°C 71.4°F21.9°C 48% 7.1 mph SW11.4 kmh SW 16.0 mph25.7 kmh 29.86 in1011.2 mb 0.00 in0.0 mm 0.00 in0.0 mm 0.00 in0.0 mm
04:40 PM 93.9°F34.4°C 71.8°F22.1°C 49% 7.8 mph SW12.6 kmh SW 15.0 mph24.1 kmh 29.86 in1011.2 mb 0.00 in0.0 mm 0.00 in0.0 mm 0.00 in0.0 mm
04:45 PM 93.6°F34.2°C 72.1°F22.3°C 50% 8.2 mph SSW13.2 kmh SSW 15.0 mph24.1 kmh 29.85 in1010.8 mb 0.00 in0.0 mm 0.00 in0.0 mm 0.00 in0.0 mm
04:50 PM 93.3°F34.1°C 71.8°F22.1°C 50% 7.2 mph SSW11.6 kmh SSW 15.0 mph24.1 kmh 29.85 in1010.8 mb 0.00 in0.0 mm 0.00 in0.0 mm 0.00 in0.0 mm
04:55 PM 93.4°F34.1°C 72.5°F22.5°C 51% 8.3 mph SSW13.4 kmh SSW 17.0 mph27.4 kmh 29.85 in1010.8 mb 0.00 in0.0 mm 0.00 in0.0 mm 0.00 in0.0 mm
05:00 PM 93.3°F34.1°C 71.8°F22.1°C 50% 9.0 mph SW14.5 kmh SW 17.0 mph27.4 kmh 29.85 in1010.8 mb 0.00 in0.0 mm 0.00 in0.0 mm 0.00 in0.0 mm
05:05 PM 93.2°F34.0°C 72.3°F22.4°C 51% 7.5 mph SW12.1 kmh SW 16.0 mph25.7 kmh 29.85 in1010.8 mb 0.00 in0.0 mm 0.00 in0.0 mm 0.00 in0.0 mm
05:10 PM 93.1°F33.9°C 72.2°F22.3°C 51% 7.0 mph SSW11.3 kmh SSW 16.0 mph25.7 kmh 29.85 in1010.8 mb 0.00 in0.0 mm 0.00 in0.0 mm 0.00 in0.0 mm
05:15 PM 93.0°F33.9°C 72.2°F22.3°C 51% 7.0 mph SSW11.3 kmh SSW 14.0 mph22.5 kmh 29.85 in1010.8 mb 0.00 in0.0 mm 0.00 in0.0 mm 0.00 in0.0 mm
05:20 PM 93.0°F33.9°C 72.2°F22.3°C 51% 7.2 mph SSW11.6 kmh SSW 14.0 mph22.5 kmh 29.85 in1010.8 mb 0.00 in0.0 mm 0.00 in0.0 mm 0.00 in0.0 mm
05:25 PM 92.9°F33.8°C 72.1°F22.3°C 51% 6.7 mph SW10.8 kmh SW 14.0 mph22.5 kmh 29.86 in1011.2 mb 0.00 in0.0 mm 0.00 in0.0 mm 0.00 in0.0 mm
05:30 PM 92.7°F33.7°C 72.5°F22.5°C 52% 7.5 mph SSW12.1 kmh SSW 14.0 mph22.5 kmh 29.85 in1010.8 mb 0.00 in0.0 mm 0.00 in0.0 mm 0.00 in0.0 mm
05:35 PM 92.6°F33.7°C 71.8°F22.1°C 51% 7.0 mph SSW11.3 kmh SSW 14.0 mph22.5 kmh 29.85 in1010.8 mb 0.00 in0.0 mm 0.00 in0.0 mm 0.00 in0.0 mm
05:40 PM 92.5°F33.6°C 71.7°F22.1°C 51% 6.7 mph SW10.8 kmh SW 12.0 mph19.3 kmh 29.85 in1010.8 mb 0.00 in0.0 mm 0.00 in0.0 mm 0.00 in0.0 mm
05:45 PM 92.4°F33.6°C 72.2°F22.3°C 52% 6.9 mph SSW11.1 kmh SSW 14.0 mph22.5 kmh 29.85 in1010.8 mb 0.00 in0.0 mm 0.00 in0.0 mm 0.00 in0.0 mm
05:50 PM 92.3°F33.5°C 72.1°F22.3°C 52% 6.8 mph SW10.9 kmh SW 14.0 mph22.5 kmh 29.85 in1010.8 mb 0.00 in0.0 mm 0.00 in0.0 mm 0.00 in0.0 mm
05:55 PM 92.2°F33.4°C 71.4°F21.9°C 51% 7.1 mph SW11.4 kmh SW 13.0 mph20.9 kmh 29.85 in1010.8 mb 0.00 in0.0 mm 0.00 in0.0 mm 0.00 in0.0 mm
06:00 PM 92.2°F33.4°C 71.4°F21.9°C 51% 6.8 mph SW10.9 kmh SW 12.0 mph19.3 kmh 29.85 in1010.8 mb 0.00 in0.0 mm 0.00 in0.0 mm 0.00 in0.0 mm
06:05 PM 92.0°F33.3°C 71.8°F22.1°C 52% 6.5 mph SW10.5 kmh SW 12.0 mph19.3 kmh 29.85 in1010.8 mb 0.00 in0.0 mm 0.00 in0.0 mm 0.00 in0.0 mm
06:10 PM 91.7°F33.2°C 71.5°F21.9°C 52% 8.1 mph SW13.0 kmh SW 14.0 mph22.5 kmh 29.85 in1010.8 mb 0.00 in0.0 mm 0.00 in0.0 mm 0.00 in0.0 mm
06:15 PM 91.6°F33.1°C 72.0°F22.2°C 53% 6.3 mph SW10.1 kmh SW 14.0 mph22.5 kmh 29.85 in1010.8 mb 0.00 in0.0 mm 0.00 in0.0 mm 0.00 in0.0 mm
06:20 PM 91.5°F33.1°C 71.9°F22.2°C 53% 7.3 mph SW11.7 kmh SW 13.0 mph20.9 kmh 29.85 in1010.8 mb 0.00 in0.0 mm 0.00 in0.0 mm 0.00 in0.0 mm
06:25 PM 91.3°F32.9°C 71.2°F21.8°C 52% 6.5 mph SW10.5 kmh SW 12.0 mph19.3 kmh 29.86 in1011.2 mb 0.00 in0.0 mm 0.00 in0.0 mm 0.00 in0.0 mm
06:30 PM 91.2°F32.9°C 71.1°F21.7°C 52% 6.3 mph SW10.1 kmh SW 12.0 mph19.3 kmh 29.86 in1011.2 mb 0.00 in0.0 mm 0.00 in0.0 mm 0.00 in0.0 mm
06:35 PM 91.0°F32.8°C 71.5°F21.9°C 53% 6.6 mph SW10.6 kmh SW 14.0 mph22.5 kmh 29.86 in1011.2 mb 0.00 in0.0 mm 0.00 in0.0 mm 0.00 in0.0 mm
06:40 PM 90.8°F32.7°C 71.8°F22.1°C 54% 6.2 mph SW10.0 kmh SW 14.0 mph22.5 kmh 29.86 in1011.2 mb 0.00 in0.0 mm 0.00 in0.0 mm 0.00 in0.0 mm
06:45 PM 90.6°F32.6°C 71.6°F22.0°C 54% 4.6 mph SW7.4 kmh SW 12.0 mph19.3 kmh 29.86 in1011.2 mb 0.00 in0.0 mm 0.00 in0.0 mm 0.00 in0.0 mm
06:50 PM 90.4°F32.4°C 71.5°F21.9°C 54% 5.6 mph SW9.0 kmh SW 11.0 mph17.7 kmh 29.86 in1011.2 mb 0.00 in0.0 mm 0.00 in0.0 mm 0.00 in0.0 mm
06:55 PM 90.3°F32.4°C 71.4°F21.9°C 54% 5.6 mph SW9.0 kmh SW 11.0 mph17.7 kmh 29.86 in1011.2 mb 0.00 in0.0 mm 0.00 in0.0 mm 0.00 in0.0 mm
07:00 PM 90.1°F32.3°C 71.7°F22.1°C 55% 5.5 mph SW8.9 kmh SW 11.0 mph17.7 kmh 29.87 in1011.5 mb 0.00 in0.0 mm 0.00 in0.0 mm 0.00 in0.0 mm
07:05 PM 89.9°F32.2°C 71.5°F21.9°C 55% 5.3 mph SW8.5 kmh SW 11.0 mph17.7 kmh 29.87 in1011.5 mb 0.00 in0.0 mm 0.00 in0.0 mm 0.00 in0.0 mm
07:10 PM 89.8°F32.1°C 70.9°F21.6°C 54% 5.9 mph SW9.5 kmh SW 10.0 mph16.1 kmh 29.87 in1011.5 mb 0.00 in0.0 mm 0.00 in0.0 mm 0.00 in0.0 mm
07:15 PM 89.7°F32.1°C 70.8°F21.6°C 54% 6.6 mph SW10.6 kmh SW 12.0 mph19.3 kmh 29.87 in1011.5 mb 0.00 in0.0 mm 0.00 in0.0 mm 0.00 in0.0 mm
07:20 PM 89.6°F32.0°C 71.3°F21.8°C 55% 5.9 mph SW9.5 kmh SW 13.0 mph20.9 kmh 29.87 in1011.5 mb 0.00 in0.0 mm 0.00 in0.0 mm 0.00 in0.0 mm
07:25 PM 89.4°F31.9°C 71.1°F21.7°C 55% 5.6 mph SW9.0 kmh SW 13.0 mph20.9 kmh 29.87 in1011.5 mb 0.00 in0.0 mm 0.00 in0.0 mm 0.00 in0.0 mm
07:30 PM 89.2°F31.8°C 71.4°F21.9°C 56% 5.1 mph SW8.2 kmh SW 11.0 mph17.7 kmh 29.87 in1011.5 mb 0.00 in0.0 mm 0.00 in0.0 mm 0.00 in0.0 mm
07:35 PM 89.0°F31.7°C 71.2°F21.8°C 56% 5.6 mph SW9.0 kmh SW 11.0 mph17.7 kmh 29.87 in1011.5 mb 0.00 in0.0 mm 0.00 in0.0 mm 0.00 in0.0 mm
07:40 PM 88.8°F31.6°C 71.6°F22.0°C 57% 5.1 mph SW8.2 kmh SW 11.0 mph17.7 kmh 29.87 in1011.5 mb 0.00 in0.0 mm 0.00 in0.0 mm 0.00 in0.0 mm
07:45 PM 88.6°F31.4°C 71.4°F21.9°C 57% 4.5 mph SW7.2 kmh SW 10.0 mph16.1 kmh 29.87 in1011.5 mb 0.00 in0.0 mm 0.00 in0.0 mm 0.00 in0.0 mm
07:50 PM 88.5°F31.4°C 71.8°F22.1°C 58% 4.6 mph SW7.4 kmh SW 10.0 mph16.1 kmh 29.88 in1011.9 mb 0.00 in0.0 mm 0.00 in0.0 mm 0.00 in0.0 mm
07:55 PM 88.4°F31.3°C 71.7°F22.1°C 58% 5.3 mph SW8.5 kmh SW 10.0 mph16.1 kmh 29.87 in1011.5 mb 0.00 in0.0 mm 0.00 in0.0 mm 0.00 in0.0 mm
08:00 PM 88.4°F31.3°C 71.2°F21.8°C 57% 5.9 mph SW9.5 kmh SW 10.0 mph16.1 kmh 29.87 in1011.5 mb 0.00 in0.0 mm 0.00 in0.0 mm 0.00 in0.0 mm
08:05 PM 88.3°F31.3°C 71.6°F22.0°C 58% 5.7 mph SW9.2 kmh SW 11.0 mph17.7 kmh 29.88 in1011.9 mb 0.00 in0.0 mm 0.00 in0.0 mm 0.00 in0.0 mm
08:10 PM 88.2°F31.2°C 71.5°F21.9°C 58% 5.0 mph SW8.0 kmh SW 11.0 mph17.7 kmh 29.88 in1011.9 mb 0.00 in0.0 mm 0.00 in0.0 mm 0.00 in0.0 mm
08:15 PM 88.0°F31.1°C 71.3°F21.8°C 58% 4.6 mph SW7.4 kmh SW 10.0 mph16.1 kmh 29.88 in1011.9 mb 0.00 in0.0 mm 0.00 in0.0 mm 0.00 in0.0 mm
08:20 PM 88.0°F31.1°C 71.3°F21.8°C 58% 4.8 mph SW7.7 kmh SW 9.0 mph14.5 kmh 29.88 in1011.9 mb 0.00 in0.0 mm 0.00 in0.0 mm 0.00 in0.0 mm
08:25 PM 87.9°F31.1°C 71.2°F21.8°C 58% 5.0 mph SW8.0 kmh SW 9.0 mph14.5 kmh 29.88 in1011.9 mb 0.00 in0.0 mm 0.00 in0.0 mm 0.00 in0.0 mm
08:30 PM 87.8°F31.0°C 71.1°F21.7°C 58% 5.1 mph SW8.2 kmh SW 12.0 mph19.3 kmh 29.89 in1012.2 mb 0.00 in0.0 mm 0.00 in0.0 mm 0.00 in0.0 mm
08:35 PM 87.7°F30.9°C 71.1°F21.7°C 58% 5.1 mph SW8.2 kmh SW 12.0 mph19.3 kmh 29.89 in1012.2 mb 0.00 in0.0 mm 0.00 in0.0 mm 0.00 in0.0 mm
08:40 PM 87.6°F30.9°C 71.5°F21.9°C 59% 4.3 mph SW6.9 kmh SW 9.0 mph14.5 kmh 29.89 in1012.2 mb 0.00 in0.0 mm 0.00 in0.0 mm 0.00 in0.0 mm
08:45 PM 87.4°F30.8°C 71.8°F22.1°C 60% 4.3 mph SW6.9 kmh SW 9.0 mph14.5 kmh 29.89 in1012.2 mb 0.00 in0.0 mm 0.00 in0.0 mm 0.00 in0.0 mm
08:50 PM 87.3°F30.7°C 72.2°F22.3°C 61% 4.1 mph SW6.6 kmh SW 8.0 mph12.9 kmh 29.89 in1012.2 mb 0.00 in0.0 mm 0.00 in0.0 mm 0.00 in0.0 mm
08:55 PM 86.9°F30.5°C 72.3°F22.4°C 62% 3.3 mph SW5.3 kmh SW 7.0 mph11.3 kmh 29.90 in1012.5 mb 0.00 in0.0 mm 0.00 in0.0 mm 0.00 in0.0 mm
09:00 PM 86.7°F30.4°C 72.6°F22.6°C 63% 3.0 mph SW4.8 kmh SW 7.0 mph11.3 kmh 29.90 in1012.5 mb 0.00 in0.0 mm 0.00 in0.0 mm 0.00 in0.0 mm
09:05 PM 86.6°F30.3°C 72.9°F22.7°C 64% 3.8 mph SW6.1 kmh SW 7.0 mph11.3 kmh 29.90 in1012.5 mb 0.00 in0.0 mm 0.00 in0.0 mm 0.00 in0.0 mm
09:10 PM 86.6°F30.3°C 72.9°F22.7°C 64% 3.8 mph SW6.1 kmh SW 7.0 mph11.3 kmh 29.91 in1012.9 mb 0.00 in0.0 mm 0.00 in0.0 mm 0.00 in0.0 mm
09:15 PM 86.4°F30.2°C 72.8°F22.7°C 64% 3.4 mph SW5.5 kmh SW 7.0 mph11.3 kmh 29.91 in1012.9 mb 0.00 in0.0 mm 0.00 in0.0 mm 0.00 in0.0 mm
09:20 PM 86.4°F30.2°C 72.3°F22.4°C 63% 3.9 mph SW6.3 kmh SW 7.0 mph11.3 kmh 29.91 in1012.9 mb 0.00 in0.0 mm 0.00 in0.0 mm 0.00 in0.0 mm
09:25 PM 86.4°F30.2°C 72.3°F22.4°C 63% 4.2 mph SW6.8 kmh SW 10.0 mph16.1 kmh 29.91 in1012.9 mb 0.00 in0.0 mm 0.00 in0.0 mm 0.00 in0.0 mm
09:30 PM 86.3°F30.2°C 72.2°F22.3°C 63% 3.9 mph SW6.3 kmh SW 10.0 mph16.1 kmh 29.91 in1012.9 mb 0.00 in0.0 mm 0.00 in0.0 mm 0.00 in0.0 mm
09:35 PM 86.3°F30.2°C 71.7°F22.1°C 62% 5.3 mph SW8.5 kmh SW 9.0 mph14.5 kmh 29.91 in1012.9 mb 0.00 in0.0 mm 0.00 in0.0 mm 0.00 in0.0 mm
09:40 PM 86.4°F30.2°C 71.8°F22.1°C 62% 5.1 mph SW8.2 kmh SW 9.0 mph14.5 kmh 29.91 in1012.9 mb 0.00 in0.0 mm 0.00 in0.0 mm 0.00 in0.0 mm
09:45 PM 86.2°F30.1°C 72.1°F22.3°C 63% 4.4 mph SW7.1 kmh SW 9.0 mph14.5 kmh 29.91 in1012.9 mb 0.00 in0.0 mm 0.00 in0.0 mm 0.00 in0.0 mm
09:50 PM 86.1°F30.1°C 72.0°F22.2°C 63% 4.4 mph SW7.1 kmh SW 7.0 mph11.3 kmh 29.92 in1013.2 mb 0.00 in0.0 mm 0.00 in0.0 mm 0.00 in0.0 mm
09:55 PM 86.0°F30.0°C 71.9°F22.2°C 63% 4.0 mph SW6.4 kmh SW 8.0 mph12.9 kmh 29.92 in1013.2 mb 0.00 in0.0 mm 0.00 in0.0 mm 0.00 in0.0 mm
10:00 PM 85.9°F29.9°C 71.8°F22.1°C 63% 4.4 mph SW7.1 kmh SW 9.0 mph14.5 kmh 29.92 in1013.2 mb 0.00 in0.0 mm 0.00 in0.0 mm 0.00 in0.0 mm
10:05 PM 85.8°F29.9°C 72.2°F22.3°C 64% 5.9 mph SW9.5 kmh SW 10.0 mph16.1 kmh 29.91 in1012.9 mb 0.00 in0.0 mm 0.00 in0.0 mm 0.00 in0.0 mm
10:10 PM 85.7°F29.8°C 72.1°F22.3°C 64% 5.3 mph SW8.5 kmh SW 10.0 mph16.1 kmh 29.91 in1012.9 mb 0.00 in0.0 mm 0.00 in0.0 mm 0.00 in0.0 mm
10:15 PM 85.6°F29.8°C 72.5°F22.5°C 65% 5.2 mph SW8.4 kmh SW 9.0 mph14.5 kmh 29.92 in1013.2 mb 0.00 in0.0 mm 0.00 in0.0 mm 0.00 in0.0 mm
10:20 PM 85.4°F29.7°C 72.3°F22.4°C 65% 3.8 mph SW6.1 kmh SW 9.0 mph14.5 kmh 29.92 in1013.2 mb 0.00 in0.0 mm 0.00 in0.0 mm 0.00 in0.0 mm
10:25 PM 85.3°F29.6°C 72.2°F22.3°C 65% 4.4 mph SW7.1 kmh SW 8.0 mph12.9 kmh 29.92 in1013.2 mb 0.00 in0.0 mm 0.00 in0.0 mm 0.00 in0.0 mm
10:30 PM 85.2°F29.6°C 72.5°F22.5°C 66% 4.0 mph SW6.4 kmh SW 8.0 mph12.9 kmh 29.92 in1013.2 mb 0.00 in0.0 mm 0.00 in0.0 mm 0.00 in0.0 mm
10:35 PM 85.1°F29.5°C 72.4°F22.4°C 66% 4.2 mph SW6.8 kmh SW 7.0 mph11.3 kmh 29.92 in1013.2 mb 0.00 in0.0 mm 0.00 in0.0 mm 0.00 in0.0 mm
10:40 PM 84.9°F29.4°C 72.7°F22.6°C 67% 3.0 mph SW4.8 kmh SW 7.0 mph11.3 kmh 29.92 in1013.2 mb 0.00 in0.0 mm 0.00 in0.0 mm 0.00 in0.0 mm
10:45 PM 84.8°F29.3°C 72.6°F22.6°C 67% 3.9 mph SW6.3 kmh SW 6.0 mph9.7 kmh 29.92 in1013.2 mb 0.00 in0.0 mm 0.00 in0.0 mm 0.00 in0.0 mm
10:50 PM 84.7°F29.3°C 72.5°F22.5°C 67% 3.8 mph SSW6.1 kmh SSW 6.0 mph9.7 kmh 29.93 in1013.5 mb 0.00 in0.0 mm 0.00 in0.0 mm 0.00 in0.0 mm
10:55 PM 84.6°F29.2°C 72.4°F22.4°C 67% 3.4 mph SW5.5 kmh SW 7.0 mph11.3 kmh 29.93 in1013.5 mb 0.00 in0.0 mm 0.00 in0.0 mm 0.00 in0.0 mm
11:00 PM 84.5°F29.2°C 72.3°F22.4°C 67% 3.9 mph SW6.3 kmh SW 8.0 mph12.9 kmh 29.93 in1013.5 mb 0.00 in0.0 mm 0.00 in0.0 mm 0.00 in0.0 mm
11:05 PM 84.5°F29.2°C 72.3°F22.4°C 67% 3.5 mph SW5.6 kmh SW 8.0 mph12.9 kmh 29.93 in1013.5 mb 0.00 in0.0 mm 0.00 in0.0 mm 0.00 in0.0 mm
11:10 PM 84.5°F29.2°C 71.9°F22.2°C 66% 5.0 mph SW8.0 kmh SW 8.0 mph12.9 kmh 29.92 in1013.2 mb 0.00 in0.0 mm 0.00 in0.0 mm 0.00 in0.0 mm
11:15 PM 84.5°F29.2°C 71.9°F22.2°C 66% 4.5 mph SW7.2 kmh SW 8.0 mph12.9 kmh 29.92 in1013.2 mb 0.00 in0.0 mm 0.00 in0.0 mm 0.00 in0.0 mm
11:20 PM 84.5°F29.2°C 71.9°F22.2°C 66% 4.6 mph SW7.4 kmh SW 8.0 mph12.9 kmh 29.93 in1013.5 mb 0.00 in0.0 mm 0.00 in0.0 mm 0.00 in0.0 mm
11:25 PM 84.5°F29.2°C 71.9°F22.2°C 66% 4.4 mph SW7.1 kmh SW 8.0 mph12.9 kmh 29.93 in1013.5 mb 0.00 in0.0 mm 0.00 in0.0 mm 0.00 in0.0 mm
11:30 PM 84.3°F29.1°C 71.7°F22.1°C 66% 3.9 mph SW6.3 kmh SW 10.0 mph16.1 kmh 29.92 in1013.2 mb 0.00 in0.0 mm 0.00 in0.0 mm 0.00 in0.0 mm
11:35 PM 84.3°F29.1°C 71.7°F22.1°C 66% 5.7 mph SW9.2 kmh SW 10.0 mph16.1 kmh 29.93 in1013.5 mb 0.00 in0.0 mm 0.00 in0.0 mm 0.00 in0.0 mm
11:40 PM 84.3°F29.1°C 71.7°F22.1°C 66% 4.5 mph SW7.2 kmh SW 11.0 mph17.7 kmh 29.92 in1013.2 mb 0.00 in0.0 mm 0.00 in0.0 mm 0.00 in0.0 mm
11:45 PM 84.3°F29.1°C 71.7°F22.1°C 66% 4.9 mph SW7.9 kmh SW 11.0 mph17.7 kmh 29.92 in1013.2 mb 0.00 in0.0 mm 0.00 in0.0 mm 0.00 in0.0 mm
11:50 PM 84.1°F28.9°C 71.5°F21.9°C 66% 4.1 mph SW6.6 kmh SW 9.0 mph14.5 kmh 29.92 in1013.2 mb 0.00 in0.0 mm 0.00 in0.0 mm 0.00 in0.0 mm
11:55 PM 84.0°F28.9°C 71.4°F21.9°C 66% 3.1 mph SW5.0 kmh SW 7.0 mph11.3 kmh 29.92 in1013.2 mb 0.00 in0.0 mm 0.00 in0.0 mm 0.00 in0.0 mm